sensor_id;sensor_type;location;lat;lon;timestamp;pressure;altitude;pressure_sealevel;temperature;humidity
82160;BME280;71734;50.876;7.372;2024-03-07T00:01:12;99787.97;;;5.76;86.59
82160;BME280;71734;50.876;7.372;2024-03-07T00:03:40;99781.88;;;5.73;86.12
82160;BME280;71734;50.876;7.372;2024-03-07T00:06:06;99788.00;;;5.73;86.37
82160;BME280;71734;50.876;7.372;2024-03-07T00:08:33;99780.16;;;5.66;86.35
82160;BME280;71734;50.876;7.372;2024-03-07T00:11:00;99778.41;;;5.58;86.50
82160;BME280;71734;50.876;7.372;2024-03-07T00:13:26;99781.06;;;5.55;86.88
82160;BME280;71734;50.876;7.372;2024-03-07T00:15:53;99785.47;;;5.50;87.01
82160;BME280;71734;50.876;7.372;2024-03-07T00:18:19;99789.00;;;5.49;87.17
82160;BME280;71734;50.876;7.372;2024-03-07T00:20:47;99786.38;;;5.48;86.53
82160;BME280;71734;50.876;7.372;2024-03-07T00:23:14;99785.50;;;5.47;87.25
82160;BME280;71734;50.876;7.372;2024-03-07T00:25:41;99800.41;;;5.44;86.54
82160;BME280;71734;50.876;7.372;2024-03-07T00:28:08;99789.88;;;5.44;86.99
82160;BME280;71734;50.876;7.372;2024-03-07T00:30:34;99791.66;;;5.42;87.20
82160;BME280;71734;50.876;7.372;2024-03-07T00:33:01;99803.03;;;5.39;86.81
82160;BME280;71734;50.876;7.372;2024-03-07T00:35:27;99797.84;;;5.33;86.55
82160;BME280;71734;50.876;7.372;2024-03-07T00:37:55;99789.91;;;5.35;87.26
82160;BME280;71734;50.876;7.372;2024-03-07T00:40:22;99787.34;;;5.29;87.44
82160;BME280;71734;50.876;7.372;2024-03-07T00:42:49;99790.81;;;5.26;86.62
82160;BME280;71734;50.876;7.372;2024-03-07T00:45:16;99787.31;;;5.27;87.73
82160;BME280;71734;50.876;7.372;2024-03-07T00:47:42;99792.56;;;5.30;87.28
82160;BME280;71734;50.876;7.372;2024-03-07T00:50:09;99790.84;;;5.29;87.51
82160;BME280;71734;50.876;7.372;2024-03-07T00:52:36;99801.31;;;5.31;86.86
82160;BME280;71734;50.876;7.372;2024-03-07T00:55:05;99783.81;;;5.27;87.25
82160;BME280;71734;50.876;7.372;2024-03-07T00:57:33;99781.19;;;5.27;87.13
82160;BME280;71734;50.876;7.372;2024-03-07T01:00:00;99786.47;;;5.25;86.95
82160;BME280;71734;50.876;7.372;2024-03-07T01:02:26;99783.84;;;5.22;87.13
82160;BME280;71734;50.876;7.372;2024-03-07T01:04:53;99789.09;;;5.22;87.41
82160;BME280;71734;50.876;7.372;2024-03-07T01:07:19;99786.47;;;5.22;87.24
82160;BME280;71734;50.876;7.372;2024-03-07T01:09:46;99794.34;;;5.19;87.57
82160;BME280;71734;50.876;7.372;2024-03-07T01:12:14;99788.22;;;5.19;87.53
82160;BME280;71734;50.876;7.372;2024-03-07T01:14:40;99789.13;;;5.16;87.33
82160;BME280;71734;50.876;7.372;2024-03-07T01:17:07;99784.75;;;5.17;87.39
82160;BME280;71734;50.876;7.372;2024-03-07T01:19:33;99783.88;;;5.16;87.58
82160;BME280;71734;50.876;7.372;2024-03-07T01:22:00;99783.00;;;5.15;87.66
82160;BME280;71734;50.876;7.372;2024-03-07T01:24:26;99783.00;;;5.12;88.05
82160;BME280;71734;50.876;7.372;2024-03-07T01:26:53;99778.63;;;5.10;87.23
82160;BME280;71734;50.876;7.372;2024-03-07T01:29:21;99785.59;;;5.14;87.86
82160;BME280;71734;50.876;7.372;2024-03-07T01:31:48;99776.88;;;5.10;87.76
82160;BME280;71734;50.876;7.372;2024-03-07T01:34:14;99771.63;;;5.09;88.33
82160;BME280;71734;50.876;7.372;2024-03-07T01:36:41;99770.75;;;5.05;87.94
82160;BME280;71734;50.876;7.372;2024-03-07T01:39:07;99769.88;;;5.02;87.66
82160;BME280;71734;50.876;7.372;2024-03-07T01:41:35;99769.88;;;5.02;87.85
82160;BME280;71734;50.876;7.372;2024-03-07T01:44:02;99766.41;;;5.00;88.04
82160;BME280;71734;50.876;7.372;2024-03-07T01:46:30;99760.28;;;4.99;88.46
82160;BME280;71734;50.876;7.372;2024-03-07T01:48:57;99760.31;;;4.92;87.79
82160;BME280;71734;50.876;7.372;2024-03-07T01:51:24;99754.16;;;4.91;87.82
82160;BME280;71734;50.876;7.372;2024-03-07T01:53:52;99755.06;;;4.87;87.63
82160;BME280;71734;50.876;7.372;2024-03-07T01:56:19;99751.56;;;4.82;87.44
82160;BME280;71734;50.876;7.372;2024-03-07T01:58:47;99746.31;;;4.79;87.99
82160;BME280;71734;50.876;7.372;2024-03-07T02:01:14;99755.09;;;4.75;87.89
82160;BME280;71734;50.876;7.372;2024-03-07T02:03:43;99741.94;;;4.74;87.64
82160;BME280;71734;50.876;7.372;2024-03-07T02:06:09;99747.19;;;4.74;87.53
82160;BME280;71734;50.876;7.372;2024-03-07T02:08:37;99743.72;;;4.72;87.40
82160;BME280;71734;50.876;7.372;2024-03-07T02:11:04;99741.09;;;4.70;88.03
82160;BME280;71734;50.876;7.372;2024-03-07T02:13:30;99741.97;;;4.67;87.53
82160;BME280;71734;50.876;7.372;2024-03-07T02:15:57;99733.22;;;4.72;87.25
82160;BME280;71734;50.876;7.372;2024-03-07T02:18:24;99741.97;;;4.72;87.17
82160;BME280;71734;50.876;7.372;2024-03-07T02:20:53;99737.59;;;4.69;86.36
82160;BME280;71734;50.876;7.372;2024-03-07T02:23:19;99744.59;;;4.69;86.64
82160;BME280;71734;50.876;7.372;2024-03-07T02:25:46;99736.75;;;4.64;87.07
82160;BME280;71734;50.876;7.372;2024-03-07T02:28:12;99738.47;;;4.65;87.03
82160;BME280;71734;50.876;7.372;2024-03-07T02:30:39;99732.38;;;4.59;87.70
82160;BME280;71734;50.876;7.372;2024-03-07T02:33:05;99740.25;;;4.63;87.71
82160;BME280;71734;50.876;7.372;2024-03-07T02:35:33;99725.38;;;4.64;87.51
82160;BME280;71734;50.876;7.372;2024-03-07T02:38:02;99729.75;;;4.60;87.86
82160;BME280;71734;50.876;7.372;2024-03-07T02:40:29;99721.84;;;4.57;87.37
82160;BME280;71734;50.876;7.372;2024-03-07T02:42:56;99732.38;;;4.60;87.53
82160;BME280;71734;50.876;7.372;2024-03-07T02:45:22;99724.50;;;4.60;88.26
82160;BME280;71734;50.876;7.372;2024-03-07T02:47:49;99723.63;;;4.60;88.26
82160;BME280;71734;50.876;7.372;2024-03-07T02:50:16;99725.34;;;4.62;87.51
82160;BME280;71734;50.876;7.372;2024-03-07T02:52:42;99716.63;;;4.63;87.68
82160;BME280;71734;50.876;7.372;2024-03-07T02:55:10;99718.34;;;4.61;87.40
82160;BME280;71734;50.876;7.372;2024-03-07T02:57:38;99722.75;;;4.58;87.61
82160;BME280;71734;50.876;7.372;2024-03-07T03:00:06;99720.13;;;4.58;87.44
82160;BME280;71734;50.876;7.372;2024-03-07T03:02:44;99715.72;;;4.52;87.44
82160;BME280;71734;50.876;7.372;2024-03-07T03:05:11;99714.00;;;4.51;87.61
82160;BME280;71734;50.876;7.372;2024-03-07T03:07:37;99714.88;;;4.58;87.59
82160;BME280;71734;50.876;7.372;2024-03-07T03:10:05;99717.50;;;4.56;86.98
82160;BME280;71734;50.876;7.372;2024-03-07T03:12:36;99718.38;;;4.58;87.62
82160;BME280;71734;50.876;7.372;2024-03-07T03:15:04;99708.75;;;4.54;87.53
82160;BME280;71734;50.876;7.372;2024-03-07T03:17:30;99712.25;;;4.56;87.82
82160;BME280;71734;50.876;7.372;2024-03-07T03:19:57;99705.22;;;4.52;87.89
82160;BME280;71734;50.876;7.372;2024-03-07T03:22:23;99705.25;;;4.58;87.77
82160;BME280;71734;50.876;7.372;2024-03-07T03:24:51;99709.63;;;4.58;87.53
82160;BME280;71734;50.876;7.372;2024-03-07T03:27:20;99704.38;;;4.53;87.64
82160;BME280;71734;50.876;7.372;2024-03-07T03:29:48;99699.13;;;4.58;87.76
82160;BME280;71734;50.876;7.372;2024-03-07T03:32:15;99698.25;;;4.57;88.52
82160;BME280;71734;50.876;7.372;2024-03-07T03:34:42;99688.63;;;4.55;88.27
82160;BME280;71734;50.876;7.372;2024-03-07T03:37:08;99693.88;;;4.55;87.75
82160;BME280;71734;50.876;7.372;2024-03-07T03:39:36;99700.00;;;4.54;88.29
82160;BME280;71734;50.876;7.372;2024-03-07T03:42:03;99687.75;;;4.48;88.36
82160;BME280;71734;50.876;7.372;2024-03-07T03:44:32;99689.50;;;4.55;87.90
82160;BME280;71734;50.876;7.372;2024-03-07T03:47:00;99685.16;;;4.47;88.00
82160;BME280;71734;50.876;7.372;2024-03-07T03:49:29;99691.25;;;4.50;88.07
82160;BME280;71734;50.876;7.372;2024-03-07T03:51:55;99691.25;;;4.46;87.90
82160;BME280;71734;50.876;7.372;2024-03-07T03:54:23;99683.41;;;4.43;87.57
82160;BME280;71734;50.876;7.372;2024-03-07T03:56:49;99686.03;;;4.38;87.07
82160;BME280;71734;50.876;7.372;2024-03-07T03:59:16;99682.53;;;4.42;88.11
82160;BME280;71734;50.876;7.372;2024-03-07T04:01:42;99679.03;;;4.34;87.47
82160;BME280;71734;50.876;7.372;2024-03-07T04:04:11;99678.16;;;4.32;88.05
82160;BME280;71734;50.876;7.372;2024-03-07T04:06:38;99683.41;;;4.37;87.45
82160;BME280;71734;50.876;7.372;2024-03-07T04:09:05;99686.03;;;4.32;88.02
82160;BME280;71734;50.876;7.372;2024-03-07T04:11:32;99675.56;;;4.35;87.91
82160;BME280;71734;50.876;7.372;2024-03-07T04:13:59;99673.78;;;4.33;87.91
82160;BME280;71734;50.876;7.372;2024-03-07T04:16:26;99674.66;;;4.36;88.01
82160;BME280;71734;50.876;7.372;2024-03-07T04:18:53;99675.53;;;4.32;88.16
82160;BME280;71734;50.876;7.372;2024-03-07T04:21:21;99667.69;;;4.21;87.52
82160;BME280;71734;50.876;7.372;2024-03-07T04:23:47;99681.69;;;4.16;87.68
82160;BME280;71734;50.876;7.372;2024-03-07T04:26:14;99668.56;;;4.22;88.46
82160;BME280;71734;50.876;7.372;2024-03-07T04:28:41;99668.56;;;4.22;88.62
82160;BME280;71734;50.876;7.372;2024-03-07T04:31:07;99668.56;;;4.22;88.25
82160;BME280;71734;50.876;7.372;2024-03-07T04:33:34;99670.31;;;4.20;88.27
82160;BME280;71734;50.876;7.372;2024-03-07T04:36:00;99673.81;;;4.16;88.94
82160;BME280;71734;50.876;7.372;2024-03-07T04:38:29;99678.19;;;4.18;89.15
82160;BME280;71734;50.876;7.372;2024-03-07T04:40:55;99679.03;;;4.28;88.91
82160;BME280;71734;50.876;7.372;2024-03-07T04:43:22;99667.69;;;4.12;88.31
82160;BME280;71734;50.876;7.372;2024-03-07T04:45:49;99680.84;;;4.11;88.87
82160;BME280;71734;50.876;7.372;2024-03-07T04:48:15;99682.56;;;4.15;88.63
82160;BME280;71734;50.876;7.372;2024-03-07T04:50:42;99671.22;;;4.19;89.41
82160;BME280;71734;50.876;7.372;2024-03-07T04:53:08;99674.69;;;4.18;88.44
82160;BME280;71734;50.876;7.372;2024-03-07T04:55:36;99673.84;;;4.14;89.19
82160;BME280;71734;50.876;7.372;2024-03-07T04:58:03;99669.44;;;4.13;89.17
82160;BME280;71734;50.876;7.372;2024-03-07T05:00:29;99675.56;;;4.14;88.20
82160;BME280;71734;50.876;7.372;2024-03-07T05:02:56;99667.72;;;4.11;88.68
82160;BME280;71734;50.876;7.372;2024-03-07T05:05:23;99662.44;;;4.08;88.76
82160;BME280;71734;50.876;7.372;2024-03-07T05:07:51;99676.44;;;4.05;88.29
82160;BME280;71734;50.876;7.372;2024-03-07T05:10:18;99679.09;;;4.07;89.28
82160;BME280;71734;50.876;7.372;2024-03-07T05:12:46;99679.09;;;4.07;87.61
82160;BME280;71734;50.876;7.372;2024-03-07T05:15:12;99676.47;;;4.07;89.02
82160;BME280;71734;50.876;7.372;2024-03-07T05:17:39;99679.06;;;4.10;88.11
82160;BME280;71734;50.876;7.372;2024-03-07T05:20:08;99673.81;;;4.04;88.31
82160;BME280;71734;50.876;7.372;2024-03-07T05:22:35;99675.59;;;3.99;88.01
82160;BME280;71734;50.876;7.372;2024-03-07T05:25:06;99676.44;;;3.96;87.81
82160;BME280;71734;50.876;7.372;2024-03-07T05:27:32;99679.09;;;3.98;88.26
82160;BME280;71734;50.876;7.372;2024-03-07T05:30:02;99677.31;;;4.00;88.07
82160;BME280;71734;50.876;7.372;2024-03-07T05:32:31;99671.22;;;3.95;88.46
82160;BME280;71734;50.876;7.372;2024-03-07T05:34:59;99679.94;;;3.97;88.71
82160;BME280;71734;50.876;7.372;2024-03-07T05:37:26;99674.72;;;3.95;88.67
82160;BME280;71734;50.876;7.372;2024-03-07T05:39:53;99673.84;;;3.90;88.34
82160;BME280;71734;50.876;7.372;2024-03-07T05:42:19;99684.31;;;3.90;87.74
82160;BME280;71734;50.876;7.372;2024-03-07T05:44:46;99683.44;;;3.88;88.08
82160;BME280;71734;50.876;7.372;2024-03-07T05:47:15;99686.06;;;3.84;88.19
82160;BME280;71734;50.876;7.372;2024-03-07T05:49:42;99685.19;;;3.79;88.60
82160;BME280;71734;50.876;7.372;2024-03-07T05:52:09;99685.19;;;3.82;89.02
82160;BME280;71734;50.876;7.372;2024-03-07T05:54:39;99684.31;;;3.80;88.78
82160;BME280;71734;50.876;7.372;2024-03-07T05:57:04;99680.81;;;3.84;88.19
82160;BME280;71734;50.876;7.372;2024-03-07T05:59:32;99670.31;;;3.71;87.34
82160;BME280;71734;50.876;7.372;2024-03-07T06:02:01;99680.81;;;3.76;88.69
82160;BME280;71734;50.876;7.372;2024-03-07T06:04:29;99686.06;;;3.78;87.57
82160;BME280;71734;50.876;7.372;2024-03-07T06:06:57;99682.56;;;3.68;88.11
82160;BME280;71734;50.876;7.372;2024-03-07T06:09:25;99676.44;;;3.66;88.16
82160;BME280;71734;50.876;7.372;2024-03-07T06:11:51;99681.69;;;3.70;88.78
82160;BME280;71734;50.876;7.372;2024-03-07T06:14:18;99688.69;;;3.65;88.60
82160;BME280;71734;50.876;7.372;2024-03-07T06:16:48;99673.84;;;3.70;87.82
82160;BME280;71734;50.876;7.372;2024-03-07T06:19:14;99682.53;;;3.71;88.80
82160;BME280;71734;50.876;7.372;2024-03-07T06:21:42;99686.06;;;3.68;88.17
82160;BME280;71734;50.876;7.372;2024-03-07T06:24:11;99678.19;;;3.70;88.45
82160;BME280;71734;50.876;7.372;2024-03-07T06:26:40;99678.19;;;3.73;88.06
82160;BME280;71734;50.876;7.372;2024-03-07T06:29:15;99676.44;;;3.67;88.31
82160;BME280;71734;50.876;7.372;2024-03-07T06:31:42;99679.06;;;3.73;88.33
82160;BME280;71734;50.876;7.372;2024-03-07T06:34:14;99670.34;;;3.65;88.13
82160;BME280;71734;50.876;7.372;2024-03-07T06:36:42;99676.47;;;3.70;88.17
82160;BME280;71734;50.876;7.372;2024-03-07T06:39:09;99678.19;;;3.76;88.07
82160;BME280;71734;50.876;7.372;2024-03-07T06:41:39;99683.44;;;3.76;87.94
82160;BME280;71734;50.876;7.372;2024-03-07T06:44:06;99676.47;;;3.83;88.01
82160;BME280;71734;50.876;7.372;2024-03-07T06:46:34;99679.97;;;3.91;88.07
82160;BME280;71734;50.876;7.372;2024-03-07T06:49:11;99680.81;;;3.96;87.10
82160;BME280;71734;50.876;7.372;2024-03-07T06:51:43;99684.31;;;4.04;86.32
82160;BME280;71734;50.876;7.372;2024-03-07T06:54:10;99674.72;;;3.94;87.27
82160;BME280;71734;50.876;7.372;2024-03-07T06:56:37;99687.81;;;4.03;87.34
82160;BME280;71734;50.876;7.372;2024-03-07T06:59:07;99680.81;;;4.05;85.96
82160;BME280;71734;50.876;7.372;2024-03-07T07:01:34;99681.69;;;4.13;86.52
82160;BME280;71734;50.876;7.372;2024-03-07T07:04:00;99685.19;;;4.19;87.04
82160;BME280;71734;50.876;7.372;2024-03-07T07:06:34;99679.91;;;4.24;85.45
82160;BME280;71734;50.876;7.372;2024-03-07T07:09:02;99674.69;;;4.30;85.48
82160;BME280;71734;50.876;7.372;2024-03-07T07:11:31;99681.69;;;4.25;85.29
82160;BME280;71734;50.876;7.372;2024-03-07T07:13:57;99683.44;;;4.40;86.11
82160;BME280;71734;50.876;7.372;2024-03-07T07:16:24;99685.16;;;4.44;85.57
82160;BME280;71734;50.876;7.372;2024-03-07T07:19:00;99675.53;;;4.47;84.80
82160;BME280;71734;50.876;7.372;2024-03-07T07:21:27;99686.84;;;4.67;85.04
82160;BME280;71734;50.876;7.372;2024-03-07T07:23:56;99687.72;;;4.71;84.11
82160;BME280;71734;50.876;7.372;2024-03-07T07:26:27;99686.81;;;4.80;84.25
82160;BME280;71734;50.876;7.372;2024-03-07T07:28:59;99673.66;;;4.89;83.43
82160;BME280;71734;50.876;7.372;2024-03-07T07:31:26;99677.13;;;4.94;83.15
82160;BME280;71734;50.876;7.372;2024-03-07T07:33:58;99669.25;;;4.95;83.24
82160;BME280;71734;50.876;7.372;2024-03-07T07:36:27;99669.22;;;5.03;82.52
82160;BME280;71734;50.876;7.372;2024-03-07T07:38:54;99673.56;;;5.13;82.89
82160;BME280;71734;50.876;7.372;2024-03-07T07:41:24;99673.47;;;5.22;82.42
82160;BME280;71734;50.876;7.372;2024-03-07T07:43:51;99665.59;;;5.30;82.04
82160;BME280;71734;50.876;7.372;2024-03-07T07:48:54;99663.66;;;5.54;80.55
82160;BME280;71734;50.876;7.372;2024-03-07T07:51:20;99659.22;;;5.62;80.84
82160;BME280;71734;50.876;7.372;2024-03-07T07:53:50;99659.16;;;5.72;79.44
82160;BME280;71734;50.876;7.372;2024-03-07T07:56:17;99661.69;;;5.88;79.85
82160;BME280;71734;50.876;7.372;2024-03-07T07:58:44;99660.75;;;5.97;78.41
82160;BME280;71734;50.876;7.372;2024-03-07T08:01:17;99658.09;;;6.00;78.71
82160;BME280;71734;50.876;7.372;2024-03-07T08:03:44;99657.28;;;5.92;79.03
82160;BME280;71734;50.876;7.372;2024-03-07T08:06:13;99663.31;;;6.06;77.43
82160;BME280;71734;50.876;7.372;2024-03-07T08:08:40;99659.63;;;6.27;76.78
82160;BME280;71734;50.876;7.372;2024-03-07T08:11:07;99643.00;;;6.23;75.75
82160;BME280;71734;50.876;7.372;2024-03-07T08:13:35;99645.38;;;6.44;76.33
82160;BME280;71734;50.876;7.372;2024-03-07T08:16:04;99642.69;;;6.50;75.64
82160;BME280;71734;50.876;7.372;2024-03-07T08:18:30;99642.06;;;6.27;74.01
82160;BME280;71734;50.876;7.372;2024-03-07T08:20:59;99633.00;;;6.52;73.97
82160;BME280;71734;50.876;7.372;2024-03-07T08:23:25;99630.22;;;6.66;73.91
82160;BME280;71734;50.876;7.372;2024-03-07T08:25:54;99633.88;;;6.54;72.54
82160;BME280;71734;50.876;7.372;2024-03-07T08:28:23;99632.06;;;6.60;71.65
82160;BME280;71734;50.876;7.372;2024-03-07T08:30:49;99627.38;;;6.84;72.96
82160;BME280;71734;50.876;7.372;2024-03-07T08:33:28;99626.19;;;7.08;72.30
82160;BME280;71734;50.876;7.372;2024-03-07T08:35:54;99639.94;;;7.31;71.46
82160;BME280;71734;50.876;7.372;2024-03-07T08:38:21;99632.78;;;7.38;69.91
82160;BME280;71734;50.876;7.372;2024-03-07T08:40:47;99638.16;;;7.33;69.60
82160;BME280;71734;50.876;7.372;2024-03-07T08:43:14;99631.44;;;7.10;70.96
82160;BME280;71734;50.876;7.372;2024-03-07T08:45:41;99644.81;;;6.93;71.31
82160;BME280;71734;50.876;7.372;2024-03-07T08:48:11;99652.88;;;6.82;70.48
82160;BME280;71734;50.876;7.372;2024-03-07T08:50:40;99644.75;;;6.97;70.61
82160;BME280;71734;50.876;7.372;2024-03-07T08:53:12;99634.53;;;6.73;71.85
82160;BME280;71734;50.876;7.372;2024-03-07T08:55:38;99641.72;;;6.58;69.57
82160;BME280;71734;50.876;7.372;2024-03-07T08:58:05;99641.72;;;6.58;72.77
82160;BME280;71734;50.876;7.372;2024-03-07T09:03:16;99636.56;;;6.51;73.08
82160;BME280;71734;50.876;7.372;2024-03-07T09:05:46;99648.00;;;6.47;73.32
82160;BME280;71734;50.876;7.372;2024-03-07T09:08:21;99647.34;;;6.27;73.54
82160;BME280;71734;50.876;7.372;2024-03-07T09:10:48;99649.97;;;6.24;76.07
82160;BME280;71734;50.876;7.372;2024-03-07T09:13:20;99649.06;;;6.30;74.95
82160;BME280;71734;50.876;7.372;2024-03-07T09:15:47;99636.91;;;6.17;74.32
82160;BME280;71734;50.876;7.372;2024-03-07T09:18:13;99650.09;;;6.15;73.01
82160;BME280;71734;50.876;7.372;2024-03-07T09:20:52;99635.84;;;6.34;73.91
82160;BME280;71734;50.876;7.372;2024-03-07T09:23:25;99639.31;;;6.36;73.17
82160;BME280;71734;50.876;7.372;2024-03-07T09:25:51;99638.75;;;6.07;72.13
82160;BME280;71734;50.876;7.372;2024-03-07T09:28:27;99644.69;;;6.27;72.59
82160;BME280;71734;50.876;7.372;2024-03-07T09:30:53;99637.69;;;6.25;73.72
82160;BME280;71734;50.876;7.372;2024-03-07T09:33:26;99641.16;;;6.31;75.61
82160;BME280;71734;50.876;7.372;2024-03-07T09:35:54;99636.00;;;6.16;72.64
82160;BME280;71734;50.876;7.372;2024-03-07T09:38:32;99640.41;;;6.19;73.72
82160;BME280;71734;50.876;7.372;2024-03-07T09:40:59;99637.00;;;6.06;74.34
82160;BME280;71734;50.876;7.372;2024-03-07T09:43:32;99630.75;;;6.18;74.07
82160;BME280;71734;50.876;7.372;2024-03-07T09:46:00;99629.00;;;6.18;74.41
82160;BME280;71734;50.876;7.372;2024-03-07T09:48:37;99619.31;;;6.20;73.83
82160;BME280;71734;50.876;7.372;2024-03-07T09:51:06;99635.22;;;6.10;74.13
82160;BME280;71734;50.876;7.372;2024-03-07T09:53:45;99609.66;;;6.22;73.14
82160;BME280;71734;50.876;7.372;2024-03-07T09:56:17;99610.03;;;6.65;72.60
82160;BME280;71734;50.876;7.372;2024-03-07T09:58:49;99619.56;;;6.77;70.74
82160;BME280;71734;50.876;7.372;2024-03-07T10:01:20;99615.69;;;7.05;69.60
82160;BME280;71734;50.876;7.372;2024-03-07T10:03:47;99609.34;;;7.18;69.55
82160;BME280;71734;50.876;7.372;2024-03-07T10:06:21;99611.69;;;7.38;68.36
82160;BME280;71734;50.876;7.372;2024-03-07T10:08:50;99604.75;;;7.87;67.27
82160;BME280;71734;50.876;7.372;2024-03-07T10:11:24;99605.13;;;8.18;66.42
82160;BME280;71734;50.876;7.372;2024-03-07T10:13:52;99598.28;;;8.56;64.72
82160;BME280;71734;50.876;7.372;2024-03-07T10:16:25;99596.28;;;9.47;62.75
82160;BME280;71734;50.876;7.372;2024-03-07T10:18:51;99600.19;;;10.03;61.13
82160;BME280;71734;50.876;7.372;2024-03-07T10:21:27;99588.16;;;10.27;59.46
82160;BME280;71734;50.876;7.372;2024-03-07T10:24:04;99598.84;;;9.87;59.84
82160;BME280;71734;50.876;7.372;2024-03-07T10:26:33;99578.50;;;9.53;60.52
82160;BME280;71734;50.876;7.372;2024-03-07T10:29:00;99589.72;;;9.63;62.59
82160;BME280;71734;50.876;7.372;2024-03-07T10:31:31;99581.53;;;9.37;62.18
82160;BME280;71734;50.876;7.372;2024-03-07T10:33:59;99586.97;;;9.67;62.68
82160;BME280;71734;50.876;7.372;2024-03-07T10:36:27;99575.44;;;9.70;62.73
82160;BME280;71734;50.876;7.372;2024-03-07T10:38:55;99567.41;;;10.07;61.79
82160;BME280;71734;50.876;7.372;2024-03-07T10:41:23;99579.47;;;10.83;59.53
82160;BME280;71734;50.876;7.372;2024-03-07T10:43:59;99562.81;;;11.37;57.16
82160;BME280;71734;50.876;7.372;2024-03-07T10:46:26;99576.25;;;11.31;57.45
82160;BME280;71734;50.876;7.372;2024-03-07T10:49:00;99563.09;;;11.28;56.79
82160;BME280;71734;50.876;7.372;2024-03-07T10:51:40;99567.03;;;10.85;57.29
82160;BME280;71734;50.876;7.372;2024-03-07T10:54:18;99569.47;;;10.62;59.39
82160;BME280;71734;50.876;7.372;2024-03-07T10:56:54;99562.09;;;9.74;58.26
82160;BME280;71734;50.876;7.372;2024-03-07T10:59:30;99566.53;;;9.74;62.44
82160;BME280;71734;50.876;7.372;2024-03-07T11:02:03;99569.13;;;9.75;61.15
82160;BME280;71734;50.876;7.372;2024-03-07T11:04:38;99565.13;;;9.58;61.44
82160;BME280;71734;50.876;7.372;2024-03-07T11:07:12;99567.34;;;9.41;63.81
82160;BME280;71734;50.876;7.372;2024-03-07T11:09:41;99564.00;;;9.32;61.92
82160;BME280;71734;50.876;7.372;2024-03-07T11:12:12;99556.53;;;9.50;63.47
82160;BME280;71734;50.876;7.372;2024-03-07T11:14:41;99552.38;;;9.40;63.48
82160;BME280;71734;50.876;7.372;2024-03-07T11:17:11;99536.13;;;9.90;62.25
82160;BME280;71734;50.876;7.372;2024-03-07T11:19:39;99548.66;;;10.17;60.00
82160;BME280;71734;50.876;7.372;2024-03-07T11:22:09;99548.78;;;10.44;60.58
82160;BME280;71734;50.876;7.372;2024-03-07T11:24:42;99543.53;;;11.58;58.05
82160;BME280;71734;50.876;7.372;2024-03-07T11:27:12;99536.56;;;11.28;59.07
82160;BME280;71734;50.876;7.372;2024-03-07T11:29:53;99532.34;;;10.33;57.52
82160;BME280;71734;50.876;7.372;2024-03-07T11:32:21;99543.34;;;10.17;58.20
82160;BME280;71734;50.876;7.372;2024-03-07T11:34:48;99535.84;;;9.99;60.49
82160;BME280;71734;50.876;7.372;2024-03-07T11:37:19;99536.97;;;10.24;60.63
82160;BME280;71734;50.876;7.372;2024-03-07T11:42:22;99519.41;;;11.38;56.81
82160;BME280;71734;50.876;7.372;2024-03-07T11:44:51;99511.06;;;12.02;53.29
82160;BME280;71734;50.876;7.372;2024-03-07T11:47:20;99513.50;;;11.84;54.65
82160;BME280;71734;50.876;7.372;2024-03-07T11:49:49;99520.69;;;10.98;56.97
82160;BME280;71734;50.876;7.372;2024-03-07T11:52:17;99520.94;;;10.89;56.31
82160;BME280;71734;50.876;7.372;2024-03-07T11:54:44;99520.53;;;10.44;57.09
82160;BME280;71734;50.876;7.372;2024-03-07T11:57:15;99509.00;;;10.45;58.36
82160;BME280;71734;50.876;7.372;2024-03-07T11:59:46;99503.03;;;10.39;59.36
82160;BME280;71734;50.876;7.372;2024-03-07T12:02:17;99499.06;;;9.90;59.06
82160;BME280;71734;50.876;7.372;2024-03-07T12:04:46;99497.31;;;9.89;60.41
82160;BME280;71734;50.876;7.372;2024-03-07T12:07:20;99490.31;;;9.17;63.18
82160;BME280;71734;50.876;7.372;2024-03-07T12:09:54;99489.84;;;9.00;63.74
82160;BME280;71734;50.876;7.372;2024-03-07T12:12:34;99488.97;;;9.00;63.66
82160;BME280;71734;50.876;7.372;2024-03-07T12:15:06;99494.38;;;8.95;63.97
82160;BME280;71734;50.876;7.372;2024-03-07T12:17:40;99497.41;;;9.15;62.85
82160;BME280;71734;50.876;7.372;2024-03-07T12:20:13;99488.47;;;9.90;61.04
82160;BME280;71734;50.876;7.372;2024-03-07T12:22:56;99491.34;;;10.46;60.32
82160;BME280;71734;50.876;7.372;2024-03-07T12:25:29;99484.84;;;9.94;60.15
82160;BME280;71734;50.876;7.372;2024-03-07T12:28:09;99486.63;;;9.92;61.02
82160;BME280;71734;50.876;7.372;2024-03-07T12:30:48;99480.72;;;9.49;62.11
82160;BME280;71734;50.876;7.372;2024-03-07T12:33:19;99479.78;;;10.78;58.72
82160;BME280;71734;50.876;7.372;2024-03-07T12:35:53;99464.78;;;10.18;58.38
82160;BME280;71734;50.876;7.372;2024-03-07T12:38:31;99463.34;;;11.48;57.33
82160;BME280;71734;50.876;7.372;2024-03-07T12:41:04;99447.97;;;11.84;53.85
82160;BME280;71734;50.876;7.372;2024-03-07T12:43:42;99460.66;;;12.49;52.05
82160;BME280;71734;50.876;7.372;2024-03-07T12:46:12;99458.16;;;11.96;52.08
82160;BME280;71734;50.876;7.372;2024-03-07T12:48:39;99457.16;;;11.22;54.53
82160;BME280;71734;50.876;7.372;2024-03-07T12:51:10;99453.38;;;11.02;55.48
82160;BME280;71734;50.876;7.372;2024-03-07T12:53:42;99452.72;;;11.99;54.04
82160;BME280;71734;50.876;7.372;2024-03-07T12:56:08;99442.81;;;12.04;53.75
82160;BME280;71734;50.876;7.372;2024-03-07T12:58:41;99450.75;;;11.29;55.26
82160;BME280;71734;50.876;7.372;2024-03-07T13:01:15;99446.97;;;11.36;54.25
82160;BME280;71734;50.876;7.372;2024-03-07T13:03:43;99439.66;;;10.88;56.21
82160;BME280;71734;50.876;7.372;2024-03-07T13:06:34;99445.25;;;10.51;55.88
82160;BME280;71734;50.876;7.372;2024-03-07T13:09:01;99442.47;;;10.27;57.67
82160;BME280;71734;50.876;7.372;2024-03-07T13:11:35;99436.50;;;10.77;56.92
82160;BME280;71734;50.876;7.372;2024-03-07T13:14:06;99433.69;;;10.24;55.80
82160;BME280;71734;50.876;7.372;2024-03-07T13:16:34;99439.00;;;10.23;58.84
82160;BME280;71734;50.876;7.372;2024-03-07T13:19:01;99426.28;;;10.65;58.52
82160;BME280;71734;50.876;7.372;2024-03-07T13:21:29;99421.88;;;10.64;59.17
82160;BME280;71734;50.876;7.372;2024-03-07T13:23:57;99431.78;;;10.87;59.13
82160;BME280;71734;50.876;7.372;2024-03-07T13:26:25;99429.03;;;10.33;60.08